Time;durP1;ratioP1;P1;durP2;ratioP2;P2;SDS_P1;SDS_P2;PMS_P1;PMS_P2;Temp;Humidity;BMP_temperature;BMP_pressure;BME280_temperature;BME280_humidity;BME280_pressure;Samples;Min_cycle;Max_cycle;Signal;HPM_P1;HPM_P2
2023/05/28 00:00:42;;;;;;;7.47;3.22;;;14.50;99.90;;;14.84;94.83;101351.69;5151526;28;20057;-79
2023/05/28 00:03:17;;;;;;;7.38;2.70;;;14.50;99.90;;;14.81;95.01;101354.25;5154787;28;20038;-80
2023/05/28 00:05:49;;;;;;;5.78;2.72;;;14.50;99.90;;;14.79;95.04;101350.66;5160284;28;20441;-79
2023/05/28 00:08:21;;;;;;;6.13;2.72;;;14.50;99.90;;;14.76;94.36;101345.34;5154981;28;20054;-79
2023/05/28 00:10:59;;;;;;;5.75;2.58;;;14.40;99.90;;;14.74;93.81;101336.56;5135981;28;20055;-80
2023/05/28 00:13:33;;;;;;;4.28;2.13;;;14.40;99.90;;;14.71;93.24;101331.22;5138660;28;20614;-80
2023/05/28 00:16:05;;;;;;;6.13;2.65;;;14.40;99.90;;;14.70;93.88;101337.31;5147417;28;20046;-80
2023/05/28 00:18:38;;;;;;;4.85;2.58;;;14.30;99.90;;;14.68;93.94;101340.75;5136497;28;20042;-80
2023/05/28 00:21:10;;;;;;;3.63;2.50;;;14.30;99.90;;;14.65;93.31;101331.94;5152961;28;20456;-79
2023/05/28 00:23:42;;;;;;;4.07;2.45;;;14.30;99.90;;;14.64;93.00;101326.66;5144899;28;20050;-80
2023/05/28 00:26:14;;;;;;;6.20;2.50;;;14.30;99.90;;;14.59;93.37;101337.03;5152588;28;20411;-79
2023/05/28 00:28:51;;;;;;;4.95;2.83;;;14.30;99.90;;;14.57;93.25;101322.09;5136007;28;20035;-78
2023/05/28 00:31:23;;;;;;;4.63;2.53;;;14.20;99.90;;;14.52;93.40;101331.56;5146683;28;20058;-81
2023/05/28 00:33:56;;;;;;;4.72;2.30;;;14.20;99.90;;;14.46;93.55;101323.50;5171581;28;20526;-80
2023/05/28 00:36:28;;;;;;;5.13;2.80;;;14.10;99.90;;;14.42;93.69;101325.16;5144428;28;20043;-79
2023/05/28 00:39:04;;;;;;;4.35;2.25;;;14.10;99.90;;;14.40;93.87;101321.59;5137890;28;20042;-80
2023/05/28 00:41:38;;;;;;;6.45;2.40;;;14.10;99.90;;;14.42;92.95;101321.66;5155865;28;20043;-80
2023/05/28 00:44:12;;;;;;;5.68;2.75;;;14.10;99.90;;;14.47;89.98;101317.44;5137062;28;20038;-80
2023/05/28 00:46:46;;;;;;;4.50;2.70;;;14.10;99.90;;;14.55;88.45;101314.19;5144392;28;20057;-80
2023/05/28 00:49:19;;;;;;;5.32;2.50;;;14.20;99.90;;;14.60;86.26;101312.56;5136514;28;20042;-80
2023/05/28 00:51:51;;;;;;;5.78;2.63;;;14.20;99.90;;;14.68;85.42;101315.41;5134417;28;20322;-80
2023/05/28 00:54:24;;;;;;;5.28;2.65;;;14.30;99.90;;;14.73;85.72;101316.38;5137875;28;20043;-80
2023/05/28 00:56:57;;;;;;;4.45;2.30;;;14.40;99.90;;;14.77;86.10;101315.63;5134257;28;20043;-79
2023/05/28 00:59:33;;;;;;;4.97;2.60;;;14.40;99.90;;;14.76;86.62;101319.13;5133123;28;20097;-79
2023/05/28 01:02:06;;;;;;;4.97;2.55;;;14.40;99.90;;;14.72;87.54;101322.50;5162122;28;20105;-80
2023/05/28 01:04:38;;;;;;;5.32;2.20;;;14.40;99.90;;;14.68;88.30;101320.66;5151659;28;20073;-80
2023/05/28 01:07:10;;;;;;;4.88;2.30;;;14.40;99.90;;;14.63;88.62;101322.25;5165561;28;20039;-81
2023/05/28 01:09:42;;;;;;;3.85;2.10;;;14.30;99.90;;;14.55;89.48;101310.69;5142887;28;20043;-79
2023/05/28 01:12:15;;;;;;;5.18;2.28;;;14.30;99.90;;;14.51;90.47;101311.44;5135867;28;20057;-79
2023/05/28 01:14:49;;;;;;;4.18;2.13;;;14.20;99.90;;;14.42;90.89;101316.41;5134884;28;20531;-78
2023/05/28 01:17:21;;;;;;;4.43;2.35;;;14.10;99.90;;;14.34;91.00;101308.31;5134080;28;20043;-79
2023/05/28 01:19:53;;;;;;;4.38;2.20;;;14.10;99.90;;;14.26;91.41;101315.06;5130437;28;20050;-79
2023/05/28 01:22:31;;;;;;;4.90;2.40;;;14.00;99.90;;;14.19;91.47;101308.78;5148179;28;20039;-80
2023/05/28 01:25:09;;;;;;;6.13;2.80;;;13.90;99.90;;;14.12;91.79;101309.44;5130433;28;20516;-79
2023/05/28 01:27:41;;;;;;;5.05;2.30;;;13.80;99.90;;;14.08;92.50;101310.19;5129996;28;20066;-81
2023/05/28 01:30:13;;;;;;;5.55;2.30;;;13.80;99.90;;;14.03;92.57;101306.56;5129706;28;20042;-79
2023/05/28 01:32:46;;;;;;;5.43;2.28;;;13.80;99.90;;;14.01;93.42;101309.13;5136404;28;20043;-78
2023/05/28 01:35:19;;;;;;;4.30;2.03;;;13.70;99.90;;;13.97;93.68;101309.91;5127716;28;20051;-79
2023/05/28 01:37:57;;;;;;;5.53;2.47;;;13.70;99.90;;;13.91;93.71;101303.59;5136096;28;20061;-79
2023/05/28 01:40:34;;;;;;;4.30;2.00;;;13.60;99.90;;;13.84;92.71;101303.41;5135000;28;20039;-78
2023/05/28 01:43:07;;;;;;;6.25;2.53;;;13.50;99.90;;;13.79;92.21;101311.97;5120123;28;20129;-79
2023/05/28 01:45:40;;;;;;;4.68;2.40;;;13.50;99.90;;;13.75;92.65;101304.84;5128435;28;20089;-78
2023/05/28 01:48:12;;;;;;;4.60;2.35;;;13.50;99.90;;;13.69;93.15;101300.34;5134947;28;20527;-79
2023/05/28 01:50:44;;;;;;;4.47;2.40;;;13.40;99.90;;;13.64;93.77;101306.28;5126879;28;20038;-78
2023/05/28 01:53:16;;;;;;;5.45;2.25;;;13.40;99.90;;;13.58;94.28;101307.00;5127669;28;20070;-79
2023/05/28 01:55:50;;;;;;;6.13;2.40;;;13.30;99.90;;;13.51;94.53;101308.53;5144924;28;20081;-79
2023/05/28 01:58:22;;;;;;;5.95;2.60;;;13.20;99.90;;;13.44;95.25;101309.19;5128040;28;20141;-78
2023/05/28 02:01:04;;;;;;;4.63;2.35;;;13.20;99.90;;;13.39;95.77;101302.00;5127937;28;20046;-79
2023/05/28 02:03:36;;;;;;;5.85;2.20;;;13.10;99.90;;;13.35;95.81;101308.00;5130027;28;20039;-79
2023/05/28 02:06:08;;;;;;;4.88;2.35;;;13.10;99.90;;;13.33;95.41;101314.91;5121879;28;20047;-78
2023/05/28 02:08:40;;;;;;;6.00;2.67;;;13.00;99.90;;;13.28;94.64;101312.13;5130432;28;20042;-79
2023/05/28 02:11:13;;;;;;;4.45;2.22;;;13.00;99.90;;;13.24;94.74;101310.28;5132742;28;20053;-79
2023/05/28 02:13:46;;;;;;;4.57;2.40;;;13.00;99.90;;;13.19;95.27;101304.84;5137111;28;20516;-79
2023/05/28 02:16:19;;;;;;;5.00;2.42;;;12.90;99.90;;;13.16;95.89;101306.47;5140353;28;20046;-79
2023/05/28 02:18:53;;;;;;;7.25;2.80;;;12.90;99.90;;;13.10;96.25;101306.28;5140634;28;20054;-78
2023/05/28 02:21:28;;;;;;;4.72;2.45;;;12.90;99.90;;;13.06;97.22;101293.94;5131922;28;20039;-79
2023/05/28 02:24:00;;;;;;;4.57;2.38;;;12.80;99.90;;;12.99;97.82;101292.84;5131070;28;20051;-78
2023/05/28 02:26:33;;;;;;;6.72;2.80;;;12.80;99.90;;;12.95;98.07;101293.56;5148692;28;20465;-79
2023/05/28 02:29:06;;;;;;;3.97;2.10;;;12.70;99.90;;;12.92;98.53;101296.09;5131024;28;20058;-78
2023/05/28 02:31:38;;;;;;;6.38;2.60;;;12.70;99.90;;;12.89;98.99;101296.00;5129957;28;20062;-78
2023/05/28 02:34:10;;;;;;;5.88;2.60;;;12.60;99.90;;;12.84;99.29;101292.31;5123594;28;20047;-79
2023/05/28 02:36:43;;;;;;;5.10;2.38;;;12.60;99.90;;;12.79;99.91;101293.94;5147804;28;20035;-79
2023/05/28 02:39:16;;;;;;;5.93;2.72;;;12.60;99.90;;;12.75;100.00;101293.81;5130339;28;20412;-79
2023/05/28 02:41:51;;;;;;;5.47;2.80;;;12.50;99.90;;;12.72;100.00;101284.97;5129774;28;20074;-78
2023/05/28 02:44:23;;;;;;;5.00;2.40;;;12.50;99.90;;;12.69;100.00;101284.84;5130975;28;20058;-79
2023/05/28 02:46:55;;;;;;;5.15;2.42;;;12.50;99.90;;;12.66;100.00;101298.72;5131131;28;20049;-78
2023/05/28 02:49:27;;;;;;;5.85;2.88;;;12.40;99.90;;;12.63;100.00;101297.72;5153338;28;20395;-79
2023/05/28 02:51:59;;;;;;;5.00;2.50;;;12.40;99.90;;;12.59;100.00;101301.97;5135499;28;20055;-78
2023/05/28 02:54:34;;;;;;;5.50;2.63;;;12.40;99.90;;;12.55;100.00;101300.09;5135788;28;20114;-79
2023/05/28 02:57:07;;;;;;;6.13;2.75;;;12.30;99.90;;;12.50;100.00;101299.03;5150631;28;20046;-79
2023/05/28 02:59:40;;;;;;;4.50;2.38;;;12.30;99.90;;;12.48;100.00;101300.72;5134749;28;20043;-79
2023/05/28 03:02:12;;;;;;;4.18;2.25;;;12.30;99.90;;;12.46;100.00;101302.38;5127159;28;20094;-79
2023/05/28 03:04:44;;;;;;;4.88;2.55;;;12.20;99.90;;;12.44;100.00;101307.53;5133537;28;20138;-79
2023/05/28 03:07:17;;;;;;;4.22;2.42;;;12.20;99.90;;;12.43;100.00;101299.66;5133231;28;20054;-79
2023/05/28 03:09:49;;;;;;;6.57;2.95;;;12.20;99.90;;;12.40;100.00;101305.66;5131018;28;20042;-78
2023/05/28 03:12:24;;;;;;;5.18;2.55;;;12.20;99.90;;;12.36;100.00;101303.78;5131511;28;20039;-79
2023/05/28 03:14:57;;;;;;;6.03;2.63;;;12.20;99.90;;;12.35;100.00;101301.13;5139322;28;20113;-79
2023/05/28 03:17:29;;;;;;;5.90;2.58;;;12.10;99.90;;;12.33;100.00;101297.56;5131500;28;20043;-78
2023/05/28 03:20:02;;;;;;;5.80;2.63;;;12.10;99.90;;;12.30;100.00;101302.66;5155406;28;20452;-80
2023/05/28 03:22:34;;;;;;;6.32;3.00;;;12.10;99.90;;;12.27;100.00;101299.97;5131520;28;20495;-79
2023/05/28 03:25:08;;;;;;;6.32;2.80;;;12.10;99.90;;;12.23;100.00;101294.59;5131943;28;20125;-79
2023/05/28 03:27:42;;;;;;;5.28;3.03;;;12.00;99.90;;;12.20;100.00;101289.28;5140486;28;20516;-78
2023/05/28 03:30:15;;;;;;;5.65;2.47;;;12.00;99.90;;;12.17;100.00;101294.38;5133340;28;20488;-79
2023/05/28 03:32:51;;;;;;;7.15;2.78;;;12.00;99.90;;;12.15;100.00;101290.81;5132901;28;20073;-79
2023/05/28 03:35:25;;;;;;;5.40;3.08;;;11.90;99.90;;;12.13;100.00;101294.22;5132307;28;20453;-79
2023/05/28 03:37:58;;;;;;;5.93;3.00;;;11.90;99.90;;;12.10;100.00;101289.75;5158286;28;20046;-79
2023/05/28 03:40:30;;;;;;;6.53;3.05;;;11.90;99.90;;;12.08;100.00;101294.06;5133045;28;20129;-78
2023/05/28 03:43:06;;;;;;;5.60;2.50;;;11.90;99.90;;;12.07;100.00;101294.00;5134299;28;20070;-79
2023/05/28 03:45:38;;;;;;;5.47;2.55;;;11.90;99.90;;;12.06;100.00;101286.97;5134741;28;20039;-79
2023/05/28 03:48:10;;;;;;;5.55;2.60;;;11.90;99.90;;;12.05;100.00;101291.31;5135863;28;20517;-79
2023/05/28 03:50:43;;;;;;;5.20;2.78;;;11.80;99.90;;;12.05;100.00;101296.53;5132794;28;20039;-79
2023/05/28 03:53:15;;;;;;;5.90;2.40;;;11.80;99.90;;;12.06;100.00;101306.19;5132909;28;20053;-79
2023/05/28 03:55:47;;;;;;;5.10;2.33;;;11.80;99.90;;;12.03;100.00;101300.84;5149717;28;20043;-79
2023/05/28 03:58:22;;;;;;;5.93;2.42;;;11.80;99.90;;;12.02;100.00;101301.66;5133270;28;20043;-79
2023/05/28 04:00:54;;;;;;;6.22;2.67;;;11.80;99.90;;;12.04;100.00;101299.09;5132610;28;20055;-79
2023/05/28 04:03:27;;;;;;;6.60;2.60;;;11.80;99.90;;;12.05;100.00;101296.53;5141444;28;20042;-78
2023/05/28 04:06:00;;;;;;;4.85;2.58;;;11.80;99.90;;;12.06;100.00;101298.34;5170467;23;20452;-79
2023/05/28 04:08:32;;;;;;;6.35;2.65;;;11.90;99.90;;;12.07;100.00;101297.50;5161196;28;20530;-80
2023/05/28 04:11:05;;;;;;;7.05;2.85;;;11.90;99.90;;;12.10;100.00;101297.59;5201586;28;20042;-79
2023/05/28 04:13:38;;;;;;;5.32;2.72;;;11.90;99.90;;;12.15;100.00;101295.16;5169531;28;20045;-79
2023/05/28 04:16:13;;;;;;;6.63;3.05;;;11.90;99.90;;;12.19;100.00;101297.97;5193637;28;20076;-80
2023/05/28 04:18:45;;;;;;;5.43;2.75;;;12.00;99.90;;;12.26;100.00;101298.16;5169283;28;20124;-80
2023/05/28 04:21:17;;;;;;;5.53;2.80;;;12.00;99.90;;;12.31;100.00;101304.44;5186659;28;20408;-79
2023/05/28 04:23:51;;;;;;;6.70;2.83;;;12.10;99.90;;;12.36;100.00;101305.50;5174166;28;20074;-80
2023/05/28 04:26:23;;;;;;;5.57;2.70;;;12.20;99.90;;;12.39;100.00;101300.41;5168933;28;20029;-79
2023/05/28 04:28:56;;;;;;;4.47;2.58;;;12.20;99.90;;;12.41;100.00;101304.84;5185615;28;20132;-80
2023/05/28 04:31:29;;;;;;;4.20;2.30;;;12.20;99.90;;;12.41;100.00;101301.34;5168882;28;20443;-80
2023/05/28 04:34:03;;;;;;;4.93;2.45;;;12.20;99.90;;;12.45;100.00;101313.66;5177842;28;20110;-80
2023/05/28 04:36:36;;;;;;;5.72;2.83;;;12.20;99.90;;;12.49;100.00;101305.97;5153090;28;20040;-80
2023/05/28 04:39:10;;;;;;;6.10;2.92;;;12.30;99.90;;;12.56;100.00;101309.69;5185332;28;20042;-84
2023/05/28 04:41:43;;;;;;;5.57;3.17;;;12.40;99.90;;;12.63;100.00;101314.31;5187150;28;20042;-80
2023/05/28 04:44:17;;;;;;;5.97;2.75;;;12.40;99.90;;;12.70;100.00;101311.06;5145201;28;20101;-80
2023/05/28 04:46:49;;;;;;;5.88;2.80;;;12.50;99.90;;;12.83;100.00;101316.72;5171960;28;20029;-80
2023/05/28 04:49:21;;;;;;;8.35;3.38;;;12.60;99.90;;;13.01;100.00;101317.34;5186850;28;20760;-80
2023/05/28 04:51:53;;;;;;;9.25;3.85;;;12.70;99.90;;;13.30;100.00;101313.06;5169043;28;20136;-80
2023/05/28 04:54:26;;;;;;;7.80;3.55;;;13.00;99.90;;;13.66;100.00;101309.84;5173219;28;20044;-80
2023/05/28 04:56:59;;;;;;;8.13;3.63;;;13.30;99.90;;;14.09;100.00;101309.38;5166777;28;20054;-79
2023/05/28 04:59:32;;;;;;;9.77;3.80;;;13.60;99.90;;;14.58;96.23;101313.38;5172398;28;20046;-79
2023/05/28 05:02:06;;;;;;;7.43;3.35;;;14.10;99.90;;;15.05;92.37;101321.56;5159921;28;20111;-80
2023/05/28 05:04:38;;;;;;;9.98;3.85;;;14.50;99.90;;;15.37;88.75;101315.38;5169451;28;20535;-79
2023/05/28 05:07:10;;;;;;;6.57;3.45;;;14.80;99.90;;;15.58;86.68;101314.97;5160720;28;20080;-79
2023/05/28 05:09:42;;;;;;;5.55;2.92;;;15.10;99.90;;;15.86;85.19;101319.16;5177549;28;20041;-80
2023/05/28 05:12:15;;;;;;;6.90;3.58;;;15.30;99.90;;;16.11;83.67;101322.28;5163508;28;20100;-82
2023/05/28 05:14:50;;;;;;;7.75;3.53;;;15.60;99.90;;;16.43;82.31;101326.47;5164505;28;20104;-82
2023/05/28 05:17:22;;;;;;;8.73;3.22;;;15.80;99.90;;;16.72;80.53;101328.78;5163872;28;20045;-83
2023/05/28 05:19:55;;;;;;;7.32;3.20;;;16.10;99.50;;;16.94;79.70;101330.03;5169978;28;20584;-83
2023/05/28 05:22:27;;;;;;;8.93;3.65;;;16.40;99.00;;;17.24;78.51;101325.28;5167689;28;20105;-83
2023/05/28 05:24:59;;;;;;;9.65;3.50;;;16.60;98.30;;;17.56;77.37;101323.13;5163966;28;20054;-84
2023/05/28 05:27:35;;;;;;;5.82;3.03;;;16.90;97.70;;;17.88;77.62;101328.91;5168382;28;20042;-84
2023/05/28 05:30:11;;;;;;;9.60;3.08;;;17.20;97.80;;;18.12;75.07;101320.38;5150845;28;20046;-83
2023/05/28 05:32:44;;;;;;;6.28;2.85;;;17.50;96.30;;;18.32;73.97;101335.56;5155445;28;20038;-85
2023/05/28 05:35:19;;;;;;;4.75;2.80;;;17.60;95.50;;;18.43;74.79;101336.59;5169186;28;20046;-83
2023/05/28 05:38:00;;;;;;;9.23;3.53;;;17.80;95.80;;;18.32;75.57;101338.22;5171228;28;20074;-82
2023/05/28 05:40:50;;;;;;;6.38;3.30;;;17.70;95.90;;;18.22;76.12;101336.34;5168472;28;20066;-83
2023/05/28 05:43:40;;;;;;;7.93;3.10;;;17.60;96.00;;;18.39;76.72;101350.63;5167997;28;20129;-82
2023/05/28 05:46:14;;;;;;;7.43;3.10;;;17.70;96.30;;;18.48;76.41;101345.44;5164160;28;20042;-82
2023/05/28 05:48:46;;;;;;;8.57;3.50;;;17.80;96.20;;;18.67;75.34;101336.88;5169011;28;20049;-83
2023/05/28 05:51:18;;;;;;;9.75;3.00;;;18.00;95.90;;;18.92;73.23;101337.13;5172497;28;20042;-82
2023/05/28 05:53:50;;;;;;;7.68;2.75;;;18.20;94.60;;;19.14;72.63;101333.81;5156672;28;20097;-83
2023/05/28 05:56:25;;;;;;;8.05;3.45;;;18.40;94.30;;;19.45;71.73;101340.22;5188023;28;20073;-85
2023/05/28 05:58:59;;;;;;;7.13;3.20;;;18.70;93.80;;;19.71;70.87;101350.13;5167486;28;20041;-84
2023/05/28 06:01:32;;;;;;;8.77;3.75;;;18.90;93.10;;;19.92;69.51;101352.88;5174338;28;20085;-82
2023/05/28 06:04:05;;;;;;;7.10;2.95;;;19.10;92.20;;;20.09;69.77;101358.25;5173854;28;20050;-80
2023/05/28 06:06:44;;;;;;;6.60;3.25;;;19.30;92.10;;;20.26;69.19;101353.03;5190003;28;20046;-80
2023/05/28 06:09:35;;;;;;;7.72;3.58;;;19.50;91.70;;;20.40;68.05;101353.06;5184026;28;20053;-80
2023/05/28 06:12:13;;;;;;;7.10;2.92;;;19.60;90.90;;;20.51;68.70;101351.38;5182045;28;20057;-79
2023/05/28 06:14:47;;;;;;;7.28;3.63;;;19.70;91.10;;;20.45;68.98;101349.59;5171984;28;20077;-78
2023/05/28 06:17:22;;;;;;;5.45;2.95;;;19.70;90.80;;;20.51;69.88;101361.97;5178361;28;20045;-81
2023/05/28 06:19:54;;;;;;;7.65;3.13;;;19.80;91.30;;;20.55;68.04;101363.75;5166968;28;20057;-81
2023/05/28 06:22:26;;;;;;;7.65;3.35;;;19.80;90.30;;;20.74;67.63;101368.22;5162695;28;20042;-81
2023/05/28 06:25:00;;;;;;;5.35;3.15;;;20.00;90.10;;;20.82;69.57;101361.16;5170568;28;20043;-81
2023/05/28 06:27:32;;;;;;;6.53;3.10;;;20.00;90.80;;;21.06;69.88;101356.75;5168680;28;20042;-81
2023/05/28 06:30:07;;;;;;;5.78;2.97;;;20.20;91.10;;;21.30;68.31;101348.84;5182084;28;20054;-81
2023/05/28 06:32:41;;;;;;;8.82;3.20;;;20.40;90.40;;;21.45;65.76;101357.66;5158201;28;20038;-81
2023/05/28 06:35:13;;;;;;;5.95;2.58;;;20.60;87.80;;;21.57;65.18;101352.34;5161047;28;20042;-81
2023/05/28 06:37:45;;;;;;;6.25;2.80;;;20.70;86.50;;;21.80;63.79;101349.66;5161380;28;20049;-82
2023/05/28 06:40:18;;;;;;;7.57;2.97;;;20.90;84.80;;;22.15;64.06;101344.25;5164400;28;20038;-81
2023/05/28 06:42:50;;;;;;;9.23;3.05;;;21.20;84.90;;;22.40;62.31;101347.69;5153858;28;20039;-81
2023/05/28 06:45:45;;;;;;;6.95;2.92;;;21.40;82.80;;;22.65;60.97;101348.44;5175012;28;20046;-81
2023/05/28 06:48:20;;;;;;;6.85;2.75;;;21.70;80.60;;;22.84;60.88;101347.44;5175430;28;20034;-81
2023/05/28 06:50:52;;;;;;;6.28;2.53;;;21.90;80.00;;;23.04;60.48;101343.78;5165208;28;20050;-80
2023/05/28 06:53:25;;;;;;;6.07;2.75;;;22.10;79.30;;;23.04;60.41;101342.00;5179363;28;20051;-79
2023/05/28 06:55:58;;;;;;;6.40;2.40;;;22.20;78.80;;;22.93;61.45;101355.38;5168379;28;20047;-79
2023/05/28 06:58:39;;;;;;;6.35;2.70;;;22.10;79.50;;;23.00;61.24;101354.41;5172511;28;20054;-79
2023/05/28 07:01:24;;;;;;;5.82;2.55;;;22.20;79.30;;;23.11;60.41;101348.16;5164414;28;20080;-81
2023/05/28 07:04:06;;;;;;;;;;;22.30;78.40;;;23.02;61.20;101360.63;5179071;28;20047;-81
2023/05/28 07:06:43;;;;;;;5.80;2.60;;;22.20;78.60;;;22.88;61.18;101362.47;5172386;28;19922;-81
2023/05/28 07:09:21;;;;;;;4.85;2.38;;;22.10;78.30;;;23.01;61.46;101361.50;5145460;28;20088;-81
2023/05/28 07:11:53;;;;;;;4.82;2.60;;;22.20;78.50;;;23.40;61.04;101356.75;5168594;28;20064;-82
2023/05/28 07:14:25;;;;;;;7.13;2.53;;;22.40;78.70;;;23.77;58.53;101361.75;5164966;28;20145;-81
2023/05/28 07:16:57;;;;;;;8.75;3.35;;;22.70;75.90;;;24.16;57.61;101359.53;5160613;28;20045;-79
2023/05/28 07:19:31;;;;;;;3.90;2.55;;;23.10;74.70;;;24.44;57.60;101362.75;5182462;28;20104;-80
2023/05/28 07:22:03;;;;;;;7.47;2.83;;;23.40;74.40;;;24.56;57.07;101363.47;5165405;28;20066;-80
2023/05/28 07:24:36;;;;;;;6.40;2.80;;;23.60;73.70;;;24.52;57.28;101359.09;5147164;28;20409;-76
2023/05/28 07:27:09;;;;;;;6.50;2.75;;;23.60;73.30;;;24.61;58.34;101356.28;5138823;28;20601;-77
2023/05/28 07:29:41;;;;;;;6.45;2.92;;;23.60;74.00;;;24.78;57.98;101360.50;5142449;28;20389;-76
2023/05/28 07:32:21;;;;;;;;;;;23.80;73.80;;;24.95;58.62;101363.78;5148675;28;20145;-76
2023/05/28 07:34:55;;;;;;;6.57;2.63;;;24.00;74.30;;;25.19;58.93;101361.66;5164322;28;19925;-78
2023/05/28 07:37:27;;;;;;;8.07;2.92;;;24.20;74.80;;;25.16;57.41;101366.13;5147713;28;20428;-77
2023/05/28 07:39:59;;;;;;;4.70;2.55;;;24.20;72.90;;;25.08;58.13;101375.16;5173257;28;20046;-77
2023/05/28 07:42:32;;;;;;;7.30;3.03;;;24.10;73.30;;;25.00;58.12;101371.72;5147858;28;20046;-78
2023/05/28 07:45:08;;;;;;;5.57;2.72;;;24.00;73.30;;;24.83;58.35;101369.28;5141508;28;20038;-78
2023/05/28 07:47:41;;;;;;;5.55;2.78;;;23.90;73.40;;;24.59;59.35;101359.88;5144994;28;20042;-76
2023/05/28 07:50:30;;;;;;;6.78;2.83;;;23.70;73.80;;;24.34;59.72;101354.00;5147637;28;20101;-77
2023/05/28 07:53:11;;;;;;;7.38;2.80;;;23.50;74.20;;;24.30;60.76;101358.44;5147980;28;20116;-77
2023/05/28 07:55:44;;;;;;;8.43;3.05;;;23.30;75.40;;;24.44;60.14;101354.75;5163761;28;20709;-77
2023/05/28 07:58:17;;;;;;;4.30;2.35;;;23.40;75.20;;;24.49;59.93;101364.44;5147589;28;20501;-77
2023/05/28 08:00:49;;;;;;;7.40;2.80;;;23.40;75.40;;;24.56;59.39;101355.47;5147451;28;20152;-77
2023/05/28 08:03:22;;;;;;;5.40;2.88;;;23.40;74.90;;;24.77;59.67;101354.25;5147560;28;20046;-76
2023/05/28 08:05:56;;;;;;;5.78;3.10;;;23.50;75.10;;;25.04;58.79;101361.00;5163574;28;20453;-78
2023/05/28 08:08:29;;;;;;;6.40;2.70;;;23.60;74.80;;;25.36;57.44;101348.91;5135667;28;20042;-78
2023/05/28 08:11:01;;;;;;;7.57;2.60;;;23.80;74.00;;;25.57;55.95;101353.00;5160257;28;20169;-77
2023/05/28 08:13:33;;;;;;;7.00;2.45;;;23.80;72.00;;;25.93;56.14;101349.63;5149072;28;20049;-78
2023/05/28 08:16:11;;;;;;;6.47;2.75;;;24.00;72.70;;;26.46;55.30;101346.78;5147269;28;20050;-77
2023/05/28 08:19:02;;;;;;;5.65;2.58;;;24.20;72.60;;;26.97;54.45;101339.34;5163150;28;20053;-77
2023/05/28 08:21:36;;;;;;;4.40;2.50;;;24.50;72.20;;;27.39;53.77;101349.03;5147053;28;20052;-77
2023/05/28 08:24:10;;;;;;;4.30;2.60;;;24.70;71.50;;;28.02;53.18;101340.16;5149899;28;20052;-78
2023/05/28 08:26:42;;;;;;;4.93;2.33;;;25.00;71.70;;;28.79;53.00;101344.97;5149562;28;20121;-78
2023/05/28 08:29:14;;;;;;;4.00;2.30;;;25.40;72.60;;;29.66;50.93;101338.50;5145800;28;20050;-78
2023/05/28 08:31:53;;;;;;;4.75;2.63;;;25.80;71.20;;;30.60;49.07;101342.13;5146746;28;20097;-78
2023/05/28 08:34:38;;;;;;;5.25;2.50;;;26.30;69.80;;;31.68;44.53;101343.91;5147040;28;20042;-76
2023/05/28 08:37:13;;;;;;;5.47;2.30;;;27.00;64.80;;;32.37;43.39;101336.28;5144518;28;20491;-77
2023/05/28 08:40:22;;;;;;;5.10;2.40;;;27.50;63.40;;;33.54;41.64;101329.56;5151115;28;20050;-76
2023/05/28 08:42:56;;;;;;;4.80;2.42;;;28.50;61.10;;;34.28;40.32;101335.44;5143167;28;20428;-77
2023/05/28 08:45:29;;;;;;;6.15;2.42;;;29.30;58.90;;;34.99;39.76;101328.72;5134663;28;20046;-76
2023/05/28 08:48:01;;;;;;;4.78;2.58;;;30.10;58.10;;;35.53;39.18;101329.97;5144760;28;20049;-76
2023/05/28 08:50:42;;;;;;;4.72;2.45;;;30.80;57.20;;;35.84;38.16;101334.38;5158431;28;20053;-76
2023/05/28 08:53:33;;;;;;;3.92;2.30;;;31.20;55.70;;;35.85;38.17;101336.13;5142881;28;20046;-77
2023/05/28 08:56:06;;;;;;;7.65;2.60;;;31.30;54.90;;;36.15;37.74;101336.06;5151868;28;20054;-76
2023/05/28 08:58:41;;;;;;;4.90;2.20;;;31.60;54.20;;;36.34;37.29;101326.72;5148086;28;20397;-77
2023/05/28 09:01:14;;;;;;;4.55;2.20;;;31.80;53.60;;;36.53;36.37;101331.88;5143793;28;20579;-77
2023/05/28 09:04:21;;;;;;;6.35;2.55;;;31.90;52.50;;;36.82;36.66;101324.50;5141746;28;20042;-77
2023/05/28 09:06:53;;;;;;;4.45;2.30;;;32.20;52.60;;;36.83;36.45;101321.66;5133975;28;20042;-77
2023/05/28 09:09:38;;;;;;;6.28;2.28;;;32.20;51.90;;;36.81;37.03;101314.59;5140855;28;20047;-77
2023/05/28 09:12:12;;;;;;;7.05;2.50;;;32.20;52.30;;;36.99;36.57;101307.09;5143493;28;20073;-78
2023/05/28 09:14:52;;;;;;;5.43;2.13;;;32.40;51.90;;;37.07;36.31;101310.16;5142719;28;20136;-79
2023/05/28 09:17:36;;;;;;;4.60;2.25;;;32.60;51.70;;;36.68;37.10;101314.56;5142358;28;20043;-78
2023/05/28 09:20:12;;;;;;;3.22;1.98;;;32.60;51.50;;;36.24;37.34;101306.56;5147293;28;20054;-78
2023/05/28 09:22:46;;;;;;;3.90;2.40;;;32.40;51.80;;;35.71;38.62;101311.72;5147222;28;20066;-77
2023/05/28 09:25:38;;;;;;;5.22;2.40;;;32.20;52.20;;;34.98;39.55;101300.78;5150999;28;20039;-78
2023/05/28 09:28:26;;;;;;;5.45;2.30;;;31.90;52.50;;;34.16;40.41;101300.94;5145261;28;20045;-76
2023/05/28 09:31:04;;;;;;;4.88;2.30;;;31.60;52.90;;;33.26;40.94;101284.16;5152096;28;20047;-76
2023/05/28 09:33:42;;;;;;;5.13;2.50;;;31.10;52.90;;;32.41;41.61;101292.03;5155333;28;20050;-76
2023/05/28 09:36:18;;;;;;;4.88;2.42;;;30.60;52.80;;;31.54;43.02;101290.63;5169735;28;20034;-78
2023/05/28 09:38:50;;;;;;;5.88;2.42;;;30.10;53.70;;;30.66;44.13;101277.31;5170477;28;20050;-76
2023/05/28 09:41:25;;;;;;;4.10;2.00;;;29.40;54.10;;;30.10;45.35;101279.56;5178310;28;20088;-77
2023/05/28 09:43:59;;;;;;;3.50;2.13;;;29.00;55.20;;;29.76;46.72;101279.94;5170655;28;20077;-77
2023/05/28 09:46:33;;;;;;;6.32;2.50;;;28.60;56.10;;;29.58;47.00;101281.50;5157604;28;20070;-78
2023/05/28 09:49:05;;;;;;;3.83;2.03;;;28.40;56.50;;;29.46;46.99;101275.59;5175537;28;20045;-77
2023/05/28 09:51:39;;;;;;;4.07;2.05;;;28.20;56.60;;;29.31;46.16;101269.91;5170607;28;20046;-75
2023/05/28 09:54:11;;;;;;;3.25;1.80;;;28.10;55.70;;;29.12;46.29;101262.50;5170930;28;20049;-77
2023/05/28 09:56:47;;;;;;;3.60;2.15;;;28.00;55.70;;;28.96;46.89;101263.09;5178546;28;20046;-78
2023/05/28 09:59:20;;;;;;;4.50;2.20;;;27.80;56.30;;;28.81;47.28;101259.94;5175024;28;20042;-78
2023/05/28 10:01:57;;;;;;;5.20;2.30;;;27.70;56.70;;;28.51;47.85;101263.66;5171165;28;20058;-78
2023/05/28 10:04:35;;;;;;;6.05;2.45;;;27.50;57.10;;;28.27;48.74;101265.28;5169291;28;20049;-78
2023/05/28 10:07:10;;;;;;;4.50;2.30;;;27.20;57.70;;;28.17;48.58;101269.16;5179536;28;20133;-79
2023/05/28 10:09:43;;;;;;;4.82;2.03;;;27.10;57.60;;;28.23;48.96;101259.13;5154189;28;20046;-77
2023/05/28 10:12:20;;;;;;;3.03;1.95;;;27.10;58.20;;;28.38;49.21;101255.13;5157674;28;20042;-77
2023/05/28 10:14:53;;;;;;;3.42;2.10;;;27.10;58.40;;;28.52;49.30;101247.50;5145256;28;20054;-77
2023/05/28 10:17:26;;;;;;;3.53;2.20;;;27.30;58.50;;;28.61;48.55;101246.31;5157675;28;20423;-77
2023/05/28 10:19:58;;;;;;;5.35;2.13;;;27.40;58.20;;;28.58;48.08;101247.31;5160899;28;20046;-78
2023/05/28 10:22:30;;;;;;;3.92;2.17;;;27.40;57.40;;;28.58;48.38;101241.06;5158399;28;20452;-78
2023/05/28 10:25:03;;;;;;;3.88;2.10;;;27.40;57.80;;;28.56;49.24;101240.22;5158357;28;20042;-79
2023/05/28 10:27:39;;;;;;;3.55;2.13;;;27.40;58.50;;;28.62;49.78;101237.34;5162978;28;20042;-78
2023/05/28 10:30:13;;;;;;;6.47;2.75;;;27.40;58.90;;;28.57;49.60;101239.31;5165560;28;20047;-79
2023/05/28 10:32:45;;;;;;;3.95;2.15;;;27.40;58.70;;;28.56;50.00;101235.78;5180231;23;20058;-76
2023/05/28 10:35:17;;;;;;;5.47;2.20;;;27.40;59.10;;;28.51;50.07;101235.03;5156394;28;20065;-76
2023/05/28 10:37:49;;;;;;;6.15;2.60;;;27.30;59.00;;;28.30;50.04;101231.22;5160902;28;20477;-76
2023/05/28 10:40:24;;;;;;;5.25;2.20;;;27.20;59.00;;;28.27;49.55;101233.97;5155766;28;20432;-76
2023/05/28 10:42:57;;;;;;;3.80;1.90;;;27.20;58.80;;;28.26;50.22;101234.91;5144343;28;20042;-77